Time;durP1;ratioP1;P1;durP2;ratioP2;P2;SDS_P1;SDS_P2;PMS_P1;PMS_P2;Temp;Humidity;BMP_temperature;BMP_pressure;BME280_temperature;BME280_humidity;BME280_pressure;Samples;Min_cycle;Max_cycle;Signal;HPM_P1;HPM_P2
2023/12/13 00:01:34;;;;;;;4.20;1.40;;;;;;;10.52;74.34;99617.38;5053138;28;20045;-66
2023/12/13 00:04:03;;;;;;;2.83;1.70;;;;;;;10.51;74.55;99608.53;5061249;28;20056;-66
2023/12/13 00:06:31;;;;;;;3.17;1.10;;;;;;;10.52;74.33;99606.66;5057135;28;20091;-65
2023/12/13 00:08:59;;;;;;;1.77;1.08;;;;;;;10.50;74.60;99603.41;5058041;28;20049;-64
2023/12/13 00:11:27;;;;;;;3.78;1.23;;;;;;;10.48;74.69;99597.47;5060375;28;20441;-64
2023/12/13 00:13:54;;;;;;;4.50;1.67;;;;;;;10.48;74.51;99600.97;5063626;28;20186;-64
2023/12/13 00:16:23;;;;;;;3.03;1.30;;;;;;;10.48;74.35;99600.97;5061698;28;20132;-65
2023/12/13 00:18:51;;;;;;;4.35;1.48;;;;;;;10.47;74.31;99601.22;5061504;28;20524;-65
2023/12/13 00:21:20;;;;;;;3.42;1.27;;;;;;;10.46;74.61;99604.97;5055696;28;20052;-64
2023/12/13 00:23:48;;;;;;;3.42;1.95;;;;;;;10.45;74.46;99601.47;5048732;28;20072;-65
2023/12/13 00:26:16;;;;;;;4.35;1.40;;;;;;;10.44;74.54;99606.03;5055645;28;20398;-65
2023/12/13 00:28:45;;;;;;;3.33;1.15;;;;;;;10.43;74.42;99607.09;5055654;28;20111;-65
2023/12/13 00:31:13;;;;;;;3.95;1.13;;;;;;;10.34;74.35;99586.34;5062444;28;20075;-66
2023/12/13 00:33:41;;;;;;;3.03;1.25;;;;;;;10.41;74.40;99595.78;5063522;28;20063;-64
2023/12/13 00:36:10;;;;;;;4.68;1.42;;;;;;;10.42;74.49;99601.97;5058136;28;20049;-66
2023/12/13 00:38:39;;;;;;;2.70;1.45;;;;;;;10.41;74.50;99600.34;5058983;28;20052;-66
2023/12/13 00:41:07;;;;;;;2.38;1.10;;;;;;;10.39;74.43;99605.19;5067793;28;20052;-65
2023/12/13 00:43:35;;;;;;;4.20;1.42;;;;;;;10.31;74.54;99593.00;5066199;28;20045;-65
2023/12/13 00:46:05;;;;;;;7.15;1.60;;;;;;;10.39;74.38;99599.81;5061992;28;20095;-64
2023/12/13 00:48:33;;;;;;;4.55;1.50;;;;;;;10.38;74.38;99592.81;5063265;28;20338;-65
2023/12/13 00:51:01;;;;;;;2.55;1.10;;;;;;;10.38;74.48;99599.00;5060583;28;20045;-66
2023/12/13 00:53:29;;;;;;;4.00;1.80;;;;;;;10.38;74.34;99590.13;5059382;28;20106;-66
2023/12/13 00:55:58;;;;;;;3.25;1.90;;;;;;;10.38;74.47;99595.50;5066301;28;20048;-66
2023/12/13 00:58:26;;;;;;;4.50;1.80;;;;;;;10.36;74.44;99592.25;5066994;28;20053;-65
2023/12/13 01:00:54;;;;;;;6.28;1.80;;;;;;;10.35;74.35;99593.31;5064686;28;20079;-66
2023/12/13 01:03:22;;;;;;;6.45;1.65;;;;;;;10.34;74.38;99586.34;5062885;28;20288;-66
2023/12/13 01:05:49;;;;;;;3.22;1.77;;;;;;;10.33;74.45;99585.53;5063648;28;20064;-66
2023/12/13 01:08:17;;;;;;;5.55;1.38;;;;;;;10.33;74.45;99590.91;5060724;28;20046;-66
2023/12/13 01:10:45;;;;;;;3.90;1.58;;;;;;;10.32;74.29;99580.41;5065986;28;20083;-66
2023/12/13 01:13:14;;;;;;;3.28;1.65;;;;;;;10.33;74.43;99579.34;5066417;28;20061;-68
2023/12/13 01:15:42;;;;;;;3.72;1.48;;;;;;;10.32;74.43;99577.72;5065205;28;20084;-67
2023/12/13 01:18:10;;;;;;;3.50;1.55;;;;;;;10.31;74.46;99581.47;5061115;28;20053;-66
2023/12/13 01:20:38;;;;;;;4.07;1.40;;;;;;;10.32;74.39;99569.66;5059984;28;20071;-66
2023/12/13 01:23:06;;;;;;;3.05;1.38;;;;;;;10.31;74.28;99579.59;5063384;28;20053;-65
2023/12/13 01:25:33;;;;;;;3.05;1.35;;;;;;;10.32;74.41;99583.91;5063596;28;20148;-63
2023/12/13 01:28:01;;;;;;;4.72;1.60;;;;;;;10.32;74.39;99583.91;5054620;28;20057;-65
2023/12/13 01:30:30;;;;;;;4.30;1.23;;;;;;;10.30;74.47;99586.03;5060790;28;20040;-66
2023/12/13 01:32:58;;;;;;;3.35;1.27;;;;;;;10.22;74.36;99574.91;5061363;28;20044;-65
2023/12/13 01:35:26;;;;;;;6.15;1.38;;;;;;;10.30;74.34;99582.53;5057924;28;20521;-65
2023/12/13 01:37:54;;;;;;;4.57;1.23;;;;;;;10.29;74.55;99587.09;5057430;28;20046;-65
2023/12/13 01:40:22;;;;;;;4.75;2.33;;;;;;;10.28;74.47;99582.78;5055643;28;20076;-66
2023/12/13 01:42:50;;;;;;;2.75;1.50;;;;;;;10.30;74.29;99587.91;5064739;28;20041;-65
2023/12/13 01:45:18;;;;;;;2.15;1.60;;;;;;;10.29;74.58;99586.28;5058529;28;20098;-65
2023/12/13 01:47:47;;;;;;;3.70;1.10;;;;;;;10.30;74.49;99590.59;5065703;28;20049;-66
2023/12/13 01:50:15;;;;;;;4.07;1.60;;;;;;;10.29;74.20;99587.09;5054274;28;20067;-65
2023/12/13 01:52:43;;;;;;;5.93;1.55;;;;;;;10.30;74.46;99591.41;5065423;28;21385;-65
2023/12/13 01:55:12;;;;;;;2.97;1.30;;;;;;;10.32;74.30;99599.19;5066288;28;20056;-65
2023/12/13 01:57:40;;;;;;;3.80;1.80;;;;;;;10.31;74.31;99589.53;5065600;28;20045;-65
2023/12/13 02:00:09;;;;;;;3.50;1.20;;;;;;;10.31;74.37;99593.00;5062615;28;20048;-65
2023/12/13 02:02:37;;;;;;;4.68;1.52;;;;;;;10.30;74.34;99594.06;5056492;28;20076;-65
2023/12/13 02:05:09;;;;;;;3.42;1.55;;;;;;;10.32;74.46;99596.50;5054807;28;20048;-65
2023/12/13 02:07:37;;;;;;;7.45;2.05;;;;;;;10.29;74.56;99592.44;5047686;28;20111;-65
2023/12/13 02:10:07;;;;;;;4.00;1.40;;;;;;;10.30;74.28;99594.06;5061667;28;20049;-65
2023/12/13 02:12:36;;;;;;;4.32;1.67;;;;;;;10.30;74.50;99582.53;5058323;28;20132;-65
2023/12/13 02:15:05;;;;;;;6.72;1.92;;;;;;;10.30;74.63;99591.41;5062079;28;20083;-66
2023/12/13 02:17:33;;;;;;;4.70;1.35;;;;;;;10.29;74.45;99587.09;5065398;28;20052;-66
2023/12/13 02:20:01;;;;;;;5.25;1.45;;;;;;;10.29;74.48;99579.03;5059607;28;20071;-66
2023/12/13 02:22:30;;;;;;;3.75;1.58;;;;;;;10.29;74.57;99589.78;5058336;28;20041;-65
2023/12/13 02:25:01;;;;;;;2.92;1.40;;;;;;;10.29;74.51;99583.59;5063032;28;20048;-65
2023/12/13 02:27:29;;;;;;;4.03;1.95;;;;;;;10.30;74.36;99582.53;5062431;28;20076;-65
2023/12/13 02:29:58;;;;;;;5.30;2.22;;;;;;;10.29;74.53;99581.72;5061030;28;20085;-66
2023/12/13 02:32:26;;;;;;;3.60;1.55;;;;;;;10.26;74.35;99576.84;5059952;28;20075;-66
2023/12/13 02:34:54;;;;;;;4.60;2.13;;;;;;;10.26;74.56;99576.84;5051498;28;20048;-66
2023/12/13 02:37:22;;;;;;;4.28;2.15;;;;;;;10.25;74.48;99575.22;5060014;28;20059;-66
2023/12/13 02:39:51;;;;;;;5.43;1.75;;;;;;;10.26;74.54;99576.03;5058434;28;20044;-65
2023/12/13 02:42:19;;;;;;;5.35;2.28;;;;;;;10.24;74.50;99570.09;5058709;28;20048;-65
2023/12/13 02:44:47;;;;;;;4.38;1.50;;;;;;;10.24;74.60;99567.41;5059961;28;20053;-65
2023/12/13 02:47:15;;;;;;;7.93;2.33;;;;;;;10.23;74.64;99571.16;5062454;28;20045;-66
2023/12/13 02:49:42;;;;;;;6.13;1.60;;;;;;;10.22;74.51;99564.16;5061630;28;21109;-65
2023/12/13 02:52:10;;;;;;;6.80;1.65;;;;;;;10.18;74.61;99563.81;5065004;28;20049;-65
2023/12/13 02:54:38;;;;;;;7.07;1.88;;;;;;;10.22;74.68;99573.03;5062240;28;20045;-65
2023/12/13 02:57:07;;;;;;;7.80;1.98;;;;;;;10.22;74.74;99562.28;5048930;28;20045;-65
2023/12/13 02:59:35;;;;;;;10.38;2.05;;;;;;;10.21;74.77;99565.22;5061076;28;20052;-65
2023/12/13 03:02:03;;;;;;;4.72;2.00;;;;;;;10.19;74.73;99559.28;5061992;28;20119;-65
2023/12/13 03:04:31;;;;;;;3.80;1.80;;;;;;;10.21;74.76;99559.88;5055850;28;20076;-65
2023/12/13 03:07:00;;;;;;;9.35;1.63;;;;;;;10.20;74.91;99561.75;5057283;28;20044;-65
2023/12/13 03:09:28;;;;;;;8.95;1.92;;;;;;;10.19;74.74;99559.28;5062127;28;20045;-65
2023/12/13 03:11:56;;;;;;;4.78;1.73;;;;;;;10.21;74.75;99560.69;5057880;28;20052;-65
2023/12/13 03:14:25;;;;;;;6.20;1.27;;;;;;;10.19;74.95;99561.94;5061470;28;20041;-65
2023/12/13 03:16:53;;;;;;;4.20;2.00;;;;;;;10.19;74.73;99560.09;5059076;28;20048;-65
2023/12/13 03:19:21;;;;;;;5.22;1.70;;;;;;;10.19;74.81;99551.22;5054195;28;20145;-65
2023/12/13 03:21:49;;;;;;;11.10;2.55;;;;;;;10.17;74.69;99556.84;5046225;28;20179;-66
2023/12/13 03:24:16;;;;;;;8.98;2.45;;;;;;;10.16;74.67;99557.91;5059732;28;20045;-66
2023/12/13 03:26:44;;;;;;;9.75;2.55;;;;;;;10.16;74.64;99557.09;5053013;28;20115;-66
2023/12/13 03:29:12;;;;;;;7.00;2.22;;;;;;;10.16;74.20;99552.53;5059142;28;20044;-67
2023/12/13 03:31:41;;;;;;;3.45;1.60;;;;;;;10.17;74.68;99554.16;5064004;28;20049;-66
2023/12/13 03:34:09;;;;;;;9.88;1.92;;;;;;;10.17;74.81;99553.34;5061824;28;20091;-66
2023/12/13 03:36:37;;;;;;;7.53;2.53;;;;;;;10.13;74.72;99550.34;5058979;28;20055;-67
2023/12/13 03:39:05;;;;;;;7.35;2.15;;;;;;;10.17;74.78;99556.03;5063422;28;20045;-65
2023/12/13 03:41:33;;;;;;;8.88;2.30;;;;;;;10.16;74.90;99549.03;5049880;28;20050;-65
2023/12/13 03:44:00;;;;;;;9.18;2.75;;;;;;;10.14;74.88;99543.91;5057494;28;20415;-65
2023/12/13 03:46:28;;;;;;;8.60;2.00;;;;;;;10.14;74.79;99541.22;5055005;28;20053;-65
2023/12/13 03:48:57;;;;;;;5.45;1.65;;;;;;;10.15;74.96;99547.41;5056810;28;20044;-65
2023/12/13 03:51:25;;;;;;;6.72;2.25;;;;;;;10.15;74.83;99534.00;5061064;28;20060;-64
2023/12/13 03:53:53;;;;;;;4.75;1.95;;;;;;;10.14;74.77;99537.72;5062347;28;20103;-65
2023/12/13 03:56:21;;;;;;;6.97;1.73;;;;;;;10.13;74.90;99539.59;5055778;28;20061;-65
2023/12/13 03:58:48;;;;;;;8.20;2.00;;;;;;;10.13;74.74;99534.25;5060664;28;20115;-66
2023/12/13 04:01:16;;;;;;;10.98;2.15;;;;;;;10.13;74.79;99544.97;5060243;28;20078;-66
2023/12/13 04:03:44;;;;;;;9.77;2.05;;;;;;;10.15;74.64;99542.03;5063597;28;20164;-65
2023/12/13 04:06:13;;;;;;;7.80;2.20;;;;;;;10.15;74.82;99542.84;5056575;28;20083;-65
2023/12/13 04:08:41;;;;;;;6.88;2.15;;;;;;;10.16;74.89;99539.09;5062106;28;20338;-66
2023/12/13 04:11:09;;;;;;;7.95;2.30;;;;;;;10.17;74.83;99529.19;5060927;28;20111;-67
2023/12/13 04:13:37;;;;;;;7.80;2.17;;;;;;;10.17;74.94;99534.53;5060291;28;20431;-65
2023/12/13 04:16:06;;;;;;;9.50;2.00;;;;;;;10.16;74.46;99522.19;5055922;28;20486;-65
2023/12/13 04:18:34;;;;;;;10.32;2.42;;;;;;;10.16;74.90;99538.28;5063526;28;20037;-65
2023/12/13 04:21:02;;;;;;;8.55;2.35;;;;;;;10.16;75.00;99524.88;5053578;28;20049;-66
2023/12/13 04:23:31;;;;;;;6.70;1.67;;;;;;;10.16;74.90;99524.88;5063642;28;20044;-66
2023/12/13 04:26:01;;;;;;;5.85;2.25;;;;;;;10.15;74.96;99532.13;5063170;28;20105;-66
2023/12/13 04:28:29;;;;;;;14.90;2.95;;;;;;;10.16;74.85;99533.75;5062715;28;20064;-66
2023/12/13 04:30:56;;;;;;;6.55;1.55;;;;;;;10.15;74.96;99531.31;5055101;28;20141;-66
2023/12/13 04:33:24;;;;;;;8.27;2.20;;;;;;;10.15;74.90;99536.66;5051619;28;20049;-66
2023/12/13 04:35:58;;;;;;;9.27;2.25;;;;;;;10.15;74.94;99532.13;5051698;28;20052;-66
2023/12/13 04:38:26;;;;;;;4.07;1.40;;;;;;;10.16;74.93;99532.94;5047923;28;20146;-65
2023/12/13 04:40:54;;;;;;;9.27;2.03;;;;;;;10.14;74.83;99527.81;5062968;28;20107;-65
2023/12/13 04:43:22;;;;;;;8.65;2.10;;;;;;;10.15;75.03;99529.44;5053265;28;20063;-65
2023/12/13 04:45:51;;;;;;;8.57;2.00;;;;;;;10.15;75.11;99526.75;5062582;28;20079;-65
2023/12/13 04:48:18;;;;;;;7.55;2.05;;;;;;;10.14;74.94;99525.13;5061132;28;20505;-65
2023/12/13 04:50:46;;;;;;;6.07;2.10;;;;;;;10.15;74.92;99523.25;5056586;28;20053;-65
2023/12/13 04:53:14;;;;;;;6.63;1.92;;;;;;;10.15;74.91;99524.06;5055551;28;20045;-65
2023/12/13 04:55:42;;;;;;;7.88;1.83;;;;;;;10.13;74.94;99518.13;5062502;28;20079;-65
2023/12/13 04:58:11;;;;;;;11.25;3.03;;;;;;;10.11;74.82;99518.38;5049784;28;20116;-65
2023/12/13 05:00:39;;;;;;;8.25;1.80;;;;;;;10.13;74.87;99515.44;5047099;28;20041;-64
2023/12/13 05:03:07;;;;;;;5.85;1.95;;;;;;;10.11;74.93;99525.63;5059648;28;20053;-66
2023/12/13 05:05:35;;;;;;;7.75;2.10;;;;;;;10.11;74.73;99520.25;5062295;28;20114;-66
2023/12/13 05:08:04;;;;;;;7.07;2.30;;;;;;;10.13;74.83;99522.69;5061975;28;20072;-66
2023/12/13 05:10:32;;;;;;;6.05;1.50;;;;;;;10.10;74.96;99515.94;5058024;28;20057;-64
2023/12/13 05:12:59;;;;;;;5.95;1.60;;;;;;;10.10;74.96;99513.25;5063294;28;20088;-64
2023/12/13 05:15:28;;;;;;;11.07;2.63;;;;;;;10.09;74.95;99514.31;5062550;28;20071;-65
2023/12/13 05:17:56;;;;;;;8.23;2.25;;;;;;;10.08;75.07;99510.81;5062194;28;20053;-65
2023/12/13 05:20:24;;;;;;;5.97;2.00;;;;;;;10.08;74.88;99502.78;5062359;28;20111;-65
2023/12/13 05:22:52;;;;;;;10.43;3.00;;;;;;;10.07;75.07;99506.53;5063381;28;20076;-64
2023/12/13 05:25:20;;;;;;;9.27;1.85;;;;;;;10.08;74.88;99502.78;5061483;28;20110;-64
2023/12/13 05:27:48;;;;;;;6.40;2.25;;;;;;;10.08;75.04;99504.66;5065568;28;20088;-64
2023/12/13 05:30:18;;;;;;;11.77;2.63;;;;;;;10.07;74.84;99508.41;5060297;28;20057;-65
2023/12/13 05:32:47;;;;;;;4.97;1.88;;;;;;;10.07;74.97;99503.84;5064611;28;20088;-65
2023/12/13 05:35:15;;;;;;;8.25;2.03;;;;;;;10.07;74.88;99509.22;5063091;28;20080;-66
2023/12/13 05:37:43;;;;;;;6.03;2.45;;;;;;;10.07;74.98;99508.41;5066312;28;20482;-64
2023/12/13 05:40:12;;;;;;;8.30;1.52;;;;;;;10.07;74.93;99503.84;5059937;28;20105;-65
2023/12/13 05:42:41;;;;;;;8.60;2.22;;;;;;;10.06;74.85;99512.16;5063895;28;20079;-66
2023/12/13 05:45:09;;;;;;;11.63;2.65;;;;;;;10.06;75.08;99506.78;5057086;28;20056;-64
2023/12/13 05:47:37;;;;;;;9.43;2.58;;;;;;;10.05;74.98;99505.97;5059064;28;20059;-65
2023/12/13 05:50:08;;;;;;;6.88;2.08;;;;;;;10.06;74.99;99512.94;5059674;28;20041;-65
2023/12/13 05:52:36;;;;;;;8.80;2.38;;;;;;;10.05;75.02;99508.66;5058410;28;20056;-65
2023/12/13 05:55:05;;;;;;;7.93;1.95;;;;;;;10.06;74.96;99509.47;5058074;28;20055;-65
2023/12/13 05:57:33;;;;;;;7.07;2.20;;;;;;;10.05;74.86;99519.38;5059089;28;20483;-65
2023/12/13 06:00:06;;;;;;;7.55;2.95;;;;;;;10.04;74.95;99514.28;5064032;28;20041;-65
2023/12/13 06:02:34;;;;;;;10.75;2.28;;;;;;;10.05;74.92;99518.56;5064794;28;20049;-65
2023/12/13 06:05:02;;;;;;;8.30;1.90;;;;;;;10.04;74.93;99519.63;5053853;28;20049;-66
2023/12/13 06:07:32;;;;;;;7.68;2.10;;;;;;;10.04;75.02;99519.63;5048243;28;20056;-65
2023/12/13 06:10:00;;;;;;;11.13;2.45;;;;;;;10.02;74.92;99519.88;5059046;28;20077;-66
2023/12/13 06:12:28;;;;;;;6.28;2.30;;;;;;;10.01;74.96;99518.25;5062462;28;20061;-65
2023/12/13 06:14:58;;;;;;;10.02;2.65;;;;;;;10.02;74.89;99522.56;5053430;28;20067;-65
2023/12/13 06:17:25;;;;;;;8.82;2.80;;;;;;;9.98;75.10;99518.75;5065958;28;20056;-65
2023/12/13 06:19:53;;;;;;;8.23;2.50;;;;;;;10.01;75.06;99523.63;5065040;28;20466;-65
2023/12/13 06:22:21;;;;;;;7.07;2.42;;;;;;;10.00;75.08;99530.06;5063856;28;20116;-65
2023/12/13 06:24:51;;;;;;;8.95;1.98;;;;;;;10.00;75.09;99522.00;5063318;28;20045;-64
2023/12/13 06:27:18;;;;;;;8.00;3.03;;;;;;;10.01;74.97;99522.81;5060978;28;20056;-65
2023/12/13 06:29:46;;;;;;;5.75;1.85;;;;;;;9.94;75.01;99511.47;5057768;28;20041;-65
2023/12/13 06:32:14;;;;;;;10.38;2.10;;;;;;;10.03;74.99;99531.44;5055488;28;20064;-63
2023/12/13 06:34:42;;;;;;;10.35;2.47;;;;;;;10.02;75.08;99536.00;5046025;28;20049;-64
2023/12/13 06:37:10;;;;;;;9.20;2.47;;;;;;;10.03;75.24;99529.56;5065092;28;20051;-64
2023/12/13 06:39:38;;;;;;;5.35;1.90;;;;;;;10.04;74.92;99536.56;5064808;28;20053;-63
2023/12/13 06:42:08;;;;;;;7.70;2.00;;;;;;;10.04;75.02;99533.88;5064493;28;20049;-63
2023/12/13 06:44:37;;;;;;;9.45;2.15;;;;;;;10.05;74.87;99540.03;5064866;28;20281;-64
2023/12/13 06:47:05;;;;;;;8.55;2.20;;;;;;;10.04;74.96;99533.06;5056252;28;20106;-63
2023/12/13 06:49:34;;;;;;;8.80;2.47;;;;;;;10.03;75.31;99534.94;5054842;28;20109;-63
2023/12/13 06:52:02;;;;;;;5.70;1.63;;;;;;;10.03;74.87;99537.63;4714290;28;10001003;-64
2023/12/13 06:54:30;;;;;;;6.47;2.00;;;;;;;10.00;74.99;99532.75;5072635;28;20058;-64
2023/12/13 06:56:59;;;;;;;8.60;1.90;;;;;;;10.03;75.07;99545.66;5057624;28;20111;-64
2023/12/13 06:59:28;;;;;;;6.75;2.30;;;;;;;10.04;75.28;99536.56;5056449;28;20049;-64
2023/12/13 07:01:56;;;;;;;6.45;1.80;;;;;;;10.04;74.95;99533.88;5048894;28;20083;-64
2023/12/13 07:04:24;;;;;;;8.55;2.50;;;;;;;10.04;75.15;99533.06;5049823;28;20425;-63
2023/12/13 07:06:55;;;;;;;7.80;2.80;;;;;;;10.04;75.15;99533.88;5051923;28;20053;-65
2023/12/13 07:09:23;;;;;;;9.27;2.35;;;;;;;10.05;75.06;99540.03;5054075;28;20060;-64
2023/12/13 07:11:51;;;;;;;8.77;2.63;;;;;;;10.06;74.95;99539.00;5059825;28;20091;-65
2023/12/13 07:14:19;;;;;;;6.38;2.15;;;;;;;10.05;75.50;99545.41;5059790;28;20491;-63
2023/12/13 07:16:48;;;;;;;9.27;2.80;;;;;;;10.04;75.21;99543.78;5057183;28;20045;-64
2023/12/13 07:19:16;;;;;;;8.15;2.10;;;;;;;10.03;75.11;99544.84;5055667;28;20515;-64
2023/12/13 07:21:44;;;;;;;10.18;2.78;;;;;;;10.03;75.02;99555.59;5050120;28;20075;-65
2023/12/13 07:24:12;;;;;;;8.02;2.17;;;;;;;10.01;75.04;99542.41;5065170;28;20056;-66
2023/12/13 07:26:41;;;;;;;6.35;2.15;;;;;;;10.01;75.13;99553.16;5064806;28;20107;-64
2023/12/13 07:29:09;;;;;;;4.93;2.05;;;;;;;10.01;74.99;99546.97;5063051;28;20133;-65
2023/12/13 07:31:39;;;;;;;11.07;2.42;;;;;;;10.02;75.00;99553.97;5066141;28;20549;-64
2023/12/13 07:34:10;;;;;;;9.18;2.60;;;;;;;10.01;75.00;99555.03;5050801;28;20047;-63
2023/12/13 07:36:40;;;;;;;7.10;2.00;;;;;;;10.01;75.04;99550.47;5057109;28;20082;-65
2023/12/13 07:39:08;;;;;;;8.63;2.53;;;;;;;9.98;75.23;99545.59;5063747;28;20061;-65
2023/12/13 07:41:36;;;;;;;5.57;2.35;;;;;;;10.00;75.06;99543.47;5050343;28;20045;-64
2023/12/13 07:44:04;;;;;;;9.20;2.38;;;;;;;9.99;75.26;99544.53;5061699;28;20049;-64
2023/12/13 07:46:32;;;;;;;9.98;2.20;;;;;;;9.99;75.14;99549.91;5063115;28;20049;-65
2023/12/13 07:49:03;;;;;;;6.93;2.17;;;;;;;10.00;75.07;99545.34;5064330;28;20079;-64
2023/12/13 07:51:33;;;;;;;6.25;2.10;;;;;;;9.98;75.14;99548.28;5063622;28;20108;-64
2023/12/13 07:54:02;;;;;;;7.00;1.85;;;;;;;9.97;75.23;99552.03;5061467;28;20064;-65
2023/12/13 07:56:30;;;;;;;8.55;2.20;;;;;;;9.89;75.19;99541.72;5062381;28;20053;-65
2023/12/13 07:58:59;;;;;;;6.53;2.17;;;;;;;9.99;75.08;99555.28;5064102;28;20069;-64
2023/12/13 08:01:28;;;;;;;7.90;2.40;;;;;;;9.99;74.92;99557.16;5063227;28;20044;-62
2023/12/13 08:03:56;;;;;;;8.18;2.40;;;;;;;9.98;75.13;99555.53;5063310;28;20052;-62
2023/12/13 08:06:24;;;;;;;6.75;2.13;;;;;;;9.98;74.92;99556.34;5063799;28;20114;-63
2023/12/13 08:08:53;;;;;;;6.40;2.20;;;;;;;9.98;75.20;99553.66;5063540;28;20049;-70
2023/12/13 08:11:21;;;;;;;6.55;2.15;;;;;;;9.99;74.96;99551.78;5055259;28;20486;-64
2023/12/13 08:13:49;;;;;;;5.38;2.13;;;;;;;9.98;75.03;99550.16;5055992;28;20071;-64
2023/12/13 08:16:17;;;;;;;9.30;2.63;;;;;;;9.98;75.00;99550.16;5060346;28;20119;-64
2023/12/13 08:18:45;;;;;;;8.27;2.20;;;;;;;9.97;75.09;99552.03;5047924;28;20084;-64
2023/12/13 08:21:13;;;;;;;5.47;2.47;;;;;;;9.99;75.02;99559.84;5061288;28;20112;-64
2023/12/13 08:23:41;;;;;;;7.00;2.92;;;;;;;9.97;75.01;99559.28;5062244;28;20049;-64
2023/12/13 08:26:13;;;;;;;4.38;1.88;;;;;;;9.98;75.06;99559.03;5062349;28;20045;-64
2023/12/13 08:28:41;;;;;;;7.40;2.15;;;;;;;9.98;75.20;99563.56;5061840;28;20501;-64
2023/12/13 08:31:08;;;;;;;7.15;2.17;;;;;;;9.97;75.05;99564.63;5061863;28;20044;-65
2023/12/13 08:33:50;;;;;;;7.18;2.00;;;;;;;9.97;75.10;99562.78;5060619;28;20049;-65
2023/12/13 08:36:18;;;;;;;5.47;2.55;;;;;;;9.97;75.20;99570.81;5062867;28;20087;-65
2023/12/13 08:38:46;;;;;;;7.18;2.10;;;;;;;9.99;74.99;99573.25;5055557;28;20060;-65
2023/12/13 08:41:16;;;;;;;7.72;2.47;;;;;;;9.95;74.98;99572.13;5061830;28;20072;-65
2023/12/13 08:43:44;;;;;;;8.55;3.08;;;;;;;9.98;75.09;99580.50;5059314;28;20045;-65
2023/12/13 08:46:12;;;;;;;4.70;2.28;;;;;;;9.97;75.09;99573.50;5061777;28;20049;-64
2023/12/13 08:48:40;;;;;;;7.57;2.80;;;;;;;9.98;75.14;99579.69;5063216;28;20063;-64
2023/12/13 08:51:08;;;;;;;10.80;2.67;;;;;;;9.96;75.07;99582.63;5061899;28;20049;-64
2023/12/13 08:53:36;;;;;;;11.55;2.58;;;;;;;9.95;75.26;99577.50;5049476;28;20049;-65
2023/12/13 08:56:04;;;;;;;5.35;2.00;;;;;;;9.99;75.07;99581.31;5061490;28;20067;-65
2023/12/13 08:58:34;;;;;;;7.65;2.80;;;;;;;9.98;75.21;99588.53;5060276;28;20060;-65
2023/12/13 09:01:02;;;;;;;9.13;2.15;;;;;;;9.99;75.08;99592.84;5061012;28;20042;-65
2023/12/13 09:03:30;;;;;;;4.53;2.03;;;;;;;10.03;75.14;99585.94;5055813;28;20041;-65
2023/12/13 09:05:58;;;;;;;6.07;2.17;;;;;;;10.18;74.66;99587.19;5062795;28;20117;-65
2023/12/13 09:08:26;;;;;;;7.05;2.17;;;;;;;10.33;73.94;99590.06;5066089;28;20045;-65
2023/12/13 09:10:55;;;;;;;5.03;1.80;;;;;;;10.50;73.37;99590.78;5065914;28;20049;-65
2023/12/13 09:13:23;;;;;;;6.00;2.03;;;;;;;10.66;72.63;99592.56;5059903;28;20490;-65
2023/12/13 09:15:52;;;;;;;6.43;3.30;;;;;;;10.87;71.90;99595.47;5060584;28;20057;-65
2023/12/13 09:18:20;;;;;;;4.90;1.95;;;;;;;11.02;71.50;99601.78;5062402;28;20045;-65
2023/12/13 09:20:48;;;;;;;8.88;2.40;;;;;;;11.17;70.84;99593.03;5058443;28;20413;-65
2023/12/13 09:23:21;;;;;;;9.48;3.95;;;;;;;11.33;70.25;99593.97;5059741;28;20045;-65
2023/12/13 09:25:49;;;;;;;5.90;1.75;;;;;;;11.47;69.90;99597.03;5058843;28;20075;-65
2023/12/13 09:28:17;;;;;;;5.78;2.08;;;;;;;11.59;69.45;99611.94;5052223;28;20098;-65
2023/12/13 09:30:45;;;;;;;5.68;1.85;;;;;;;11.71;69.31;99603.66;5060879;28;20375;-66
2023/12/13 09:33:14;;;;;;;6.60;2.08;;;;;;;11.79;68.88;99607.78;5056874;28;20049;-65
2023/12/13 09:35:43;;;;;;;5.43;2.13;;;;;;;11.88;68.60;99609.72;5057300;28;20517;-65
2023/12/13 09:38:11;;;;;;;7.20;2.35;;;;;;;11.92;68.32;99608.13;5062940;28;20053;-65
2023/12/13 09:40:39;;;;;;;6.65;2.28;;;;;;;11.96;67.84;99609.22;5064606;28;20071;-65
2023/12/13 09:43:07;;;;;;;5.93;2.25;;;;;;;12.00;67.84;99613.03;5065816;28;20049;-65
2023/12/13 09:45:38;;;;;;;4.80;2.22;;;;;;;12.00;67.72;99614.91;5062148;28;20052;-65
2023/12/13 09:48:08;;;;;;;7.05;2.33;;;;;;;12.00;68.22;99617.59;5057815;28;20179;-65
2023/12/13 09:50:38;;;;;;;4.18;1.70;;;;;;;12.02;68.04;99620.84;5058155;28;20095;-65
2023/12/13 09:53:07;;;;;;;4.15;1.85;;;;;;;12.03;68.20;99619.78;5066213;28;20049;-66
2023/12/13 09:55:36;;;;;;;5.82;1.95;;;;;;;12.04;68.14;99627.59;5065223;28;20052;-65
2023/12/13 09:58:04;;;;;;;5.22;1.73;;;;;;;12.03;68.14;99625.16;5063574;28;20052;-67
2023/12/13 10:00:32;;;;;;;4.40;2.65;;;;;;;12.04;67.70;99627.59;5064482;28;20498;-65
2023/12/13 10:03:00;;;;;;;6.32;2.75;;;;;;;12.04;68.06;99626.78;5065733;28;20114;-65
2023/12/13 10:05:29;;;;;;;6.90;2.10;;;;;;;11.94;68.38;99626.72;5064408;28;20071;-65
2023/12/13 10:08:01;;;;;;;4.82;2.13;;;;;;;11.78;68.89;99633.88;5065564;28;20053;-65
2023/12/13 10:10:31;;;;;;;7.78;3.20;;;;;;;11.59;69.38;99630.78;5063376;28;20045;-66
2023/12/13 10:13:01;;;;;;;7.45;2.20;;;;;;;11.44;70.26;99633.34;5058697;28;20075;-64
2023/12/13 10:15:30;;;;;;;6.63;2.35;;;;;;;11.28;70.52;99634.28;5059808;28;20113;-65
2023/12/13 10:17:59;;;;;;;7.80;2.65;;;;;;;11.20;71.33;99640.13;5061686;28;20048;-65
2023/12/13 10:20:27;;;;;;;4.78;2.20;;;;;;;11.10;71.55;99648.91;5060639;28;20040;-65
2023/12/13 10:22:55;;;;;;;6.55;2.10;;;;;;;11.01;71.97;99637.81;5064995;28;20079;-65
2023/12/13 10:25:24;;;;;;;5.18;2.35;;;;;;;10.96;72.41;99642.31;5063902;28;20045;-66
2023/12/13 10:27:53;;;;;;;8.10;2.45;;;;;;;10.91;72.26;99643.09;5065132;28;20061;-66
2023/12/13 10:30:21;;;;;;;4.50;1.80;;;;;;;10.86;72.52;99647.59;5059217;28;20053;-66
2023/12/13 10:32:48;;;;;;;7.45;2.40;;;;;;;10.82;72.86;99641.91;5059259;28;20108;-65
2023/12/13 10:35:16;;;;;;;9.68;2.97;;;;;;;10.79;72.92;99647.78;5058653;28;20045;-66
2023/12/13 10:37:48;;;;;;;7.72;2.15;;;;;;;10.76;73.12;99659.03;5062862;28;20059;-66
2023/12/13 10:40:20;;;;;;;8.48;2.25;;;;;;;10.73;73.22;99651.50;5056850;28;20049;-66
2023/12/13 10:42:54;;;;;;;4.28;2.03;;;;;;;10.70;73.45;99649.31;5060986;28;20059;-66
2023/12/13 10:45:23;;;;;;;4.88;2.55;;;;;;;10.67;73.54;99652.50;5057677;28;20053;-66
2023/12/13 10:48:00;;;;;;;4.80;2.33;;;;;;;10.64;73.62;99648.44;5058718;28;20147;-66
2023/12/13 10:50:28;;;;;;;5.68;2.20;;;;;;;10.72;73.42;99650.69;5062977;28;20045;-67
2023/12/13 10:52:59;;;;;;;7.32;2.20;;;;;;;10.86;72.86;99650.28;5063443;28;20037;-66
2023/12/13 10:55:28;;;;;;;6.50;2.65;;;;;;;11.03;72.25;99648.31;5062581;28;20048;-66
2023/12/13 10:57:58;;;;;;;6.97;2.83;;;;;;;11.23;71.49;99648.50;5055800;28;20114;-65
2023/12/13 11:00:27;;;;;;;9.35;2.70;;;;;;;11.41;70.75;99645.44;5051519;28;20340;-65
2023/12/13 11:03:02;;;;;;;8.55;3.22;;;;;;;11.58;70.33;99644.47;5059837;28;20045;-66
2023/12/13 11:05:31;;;;;;;5.65;1.70;;;;;;;11.73;69.77;99645.41;5056497;28;20056;-65
2023/12/13 11:07:59;;;;;;;6.63;2.53;;;;;;;11.85;69.33;99642.56;5056405;28;20053;-66
2023/12/13 11:10:26;;;;;;;9.55;2.42;;;;;;;12.02;68.64;99647.78;5061237;28;20475;-65
2023/12/13 11:12:55;;;;;;;5.75;2.20;;;;;;;12.14;67.92;99651.03;5058436;28;20487;-66
2023/12/13 11:15:24;;;;;;;6.25;2.42;;;;;;;12.19;68.08;99652.94;5058093;28;20094;-66
2023/12/13 11:17:55;;;;;;;8.38;2.70;;;;;;;12.17;68.01;99652.41;5064876;28;20079;-66
2023/12/13 11:20:24;;;;;;;6.43;2.20;;;;;;;12.01;68.65;99655.03;5058986;28;20049;-66
2023/12/13 11:22:56;;;;;;;6.70;2.53;;;;;;;11.83;68.98;99654.66;5060991;28;20052;-66
2023/12/13 11:25:35;;;;;;;5.38;2.28;;;;;;;11.66;69.99;99660.97;5061314;28;20045;-66
2023/12/13 11:28:03;;;;;;;8.18;2.60;;;;;;;11.55;70.43;99656.56;5061158;28;20057;-66
2023/12/13 11:30:33;;;;;;;7.18;2.92;;;;;;;11.47;70.69;99659.72;5057762;28;20041;-65
2023/12/13 11:33:11;;;;;;;11.27;3.13;;;;;;;11.39;70.98;99657.50;5060016;28;20045;-65
2023/12/13 11:35:39;;;;;;;6.50;2.50;;;;;;;11.32;71.43;99660.41;5062839;28;20076;-66
2023/12/13 11:38:08;;;;;;;9.07;2.97;;;;;;;11.27;71.62;99668.44;5064087;28;20056;-66
2023/12/13 11:40:35;;;;;;;5.60;2.30;;;;;;;11.23;71.75;99669.19;5058763;28;20139;-65